Time;durP1;ratioP1;P1;durP2;ratioP2;P2;SDS_P1;SDS_P2;PMS_P1;PMS_P2;Temp;Humidity;BMP_temperature;BMP_pressure;BME280_temperature;BME280_humidity;BME280_pressure;Samples;Min_cycle;Max_cycle;Signal;HPM_P1;HPM_P2
2022/01/21 00:02:13;;;;;;;0.97;0.97;;;4.30;99.90;4.50;103302.00;;;;5025875;28;20193;-69
2022/01/21 00:04:42;;;;;;;0.40;0.40;;;4.30;99.90;4.40;103303.00;;;;5024336;28;20694;-69
2022/01/21 00:07:16;;;;;;;0.40;0.40;;;4.30;99.90;4.30;103292.00;;;;5008149;28;20214;-69
2022/01/21 00:09:46;;;;;;;0.50;0.50;;;4.20;99.90;4.50;103251.00;;;;5009812;28;20186;-69
2022/01/21 00:12:17;;;;;;;0.40;0.40;;;4.20;99.90;4.50;103287.00;;;;5025028;28;20292;-69
2022/01/21 00:14:51;;;;;;;0.50;0.50;;;4.30;99.90;4.30;103301.00;;;;5024799;28;20204;-67
2022/01/21 00:17:23;;;;;;;0.50;0.50;;;4.20;99.90;4.40;103288.00;;;;5023852;28;20262;-68
2022/01/21 00:30:07;;;;;;;0.40;0.40;;;4.10;99.90;4.00;103293.00;;;;5024534;28;20190;-68
2022/01/21 00:31:27;;;;;;;0.63;0.63;;;3.80;99.90;3.80;103289.00;;;;5025837;28;20257;-70
2022/01/21 00:33:58;;;;;;;0.50;0.50;;;3.90;99.90;4.00;103295.00;;;;5025265;28;20269;-69
2022/01/21 00:36:27;;;;;;;0.40;0.40;;;3.80;99.90;4.30;103295.00;;;;5023661;28;20659;-69
2022/01/21 00:38:57;;;;;;;0.63;0.63;;;4.00;99.90;4.30;103306.00;;;;5023879;28;20260;-70
2022/01/21 00:41:31;;;;;;;0.40;0.40;;;4.10;99.90;4.60;103308.00;;;;5024912;28;20194;-69
2022/01/21 00:44:03;;;;;;;0.47;0.47;;;4.30;99.90;4.50;103305.00;;;;5025286;28;20170;-69
2022/01/21 00:46:37;;;;;;;0.40;0.40;;;4.20;99.90;4.40;103305.00;;;;5016202;28;20190;-68
2022/01/21 00:49:03;;;;;;;0.40;0.40;;;4.40;99.90;4.20;103298.00;;;;5023604;28;20192;-69
2022/01/21 00:51:34;;;;;;;0.33;0.33;;;4.10;99.90;4.10;103307.00;;;;5040346;28;20232;-69
2022/01/21 00:54:08;;;;;;;0.40;0.40;;;4.00;99.90;3.70;103294.00;;;;5023593;28;20190;-69
2022/01/21 00:56:40;;;;;;;0.40;0.40;;;3.90;99.90;3.70;103294.00;;;;5023407;28;20638;-70
2022/01/21 00:59:11;;;;;;;0.40;0.40;;;3.70;99.90;3.90;103305.00;;;;5007039;28;20728;-68
2022/01/21 01:01:37;;;;;;;0.40;0.40;;;3.70;99.90;4.00;103312.00;;;;5036183;28;20191;-68
2022/01/21 01:04:08;;;;;;;0.40;0.40;;;3.70;99.90;4.40;103316.00;;;;5033550;28;20201;-69
2022/01/21 01:06:41;;;;;;;0.40;0.40;;;3.90;99.90;4.10;103325.00;;;;5013961;28;20276;-69
2022/01/21 01:09:12;;;;;;;0.40;0.40;;;3.90;99.90;4.10;103314.00;;;;5014385;28;20182;-69
2022/01/21 01:12:13;;;;;;;0.40;0.40;;;3.80;99.90;4.60;103315.00;;;;4998427;28;20218;-69
2022/01/21 01:20:24;;;;;;;0.50;0.50;;;4.10;99.90;4.20;103290.00;;;;5033521;28;20213;-69
2022/01/21 01:23:07;;;;;;;0.40;0.40;;;4.00;99.90;4.60;103313.00;;;;5015158;28;20187;-69
2022/01/21 01:28:28;;;;;;;0.40;0.40;;;4.20;99.90;4.70;103322.00;;;;5018164;28;20328;-69
2022/01/21 01:30:59;;;;;;;0.40;0.40;;;4.40;99.90;4.80;103326.00;;;;5033478;28;20193;-69
2022/01/21 01:33:36;;;;;;;0.40;0.40;;;4.50;99.90;4.80;103308.00;;;;5032392;28;20202;-69
2022/01/21 01:36:09;;;;;;;0.40;0.40;;;4.50;99.90;4.40;103313.00;;;;4998408;28;20182;-69
2022/01/21 01:41:14;;;;;;;0.30;0.30;;;4.40;99.90;4.70;103320.00;;;;5013953;28;20197;-69
2022/01/21 01:49:28;;;;;;;0.40;0.40;;;4.40;99.90;4.80;103310.00;;;;4986982;28;20272;-69
2022/01/21 01:51:56;;;;;;;0.30;0.30;;;4.50;99.90;4.60;103307.00;;;;5033149;28;20746;-69
2022/01/21 01:54:30;;;;;;;0.40;0.40;;;4.50;99.90;4.50;103301.00;;;;5014190;28;20186;-68
2022/01/21 01:57:02;;;;;;;0.40;0.40;;;4.40;99.90;4.30;103293.00;;;;5014867;28;20190;-67
2022/01/21 01:59:31;;;;;;;0.47;0.47;;;4.30;99.90;4.30;103279.00;;;;4997107;28;20190;-67
2022/01/21 02:02:09;;;;;;;0.40;0.40;;;4.30;99.90;4.80;103297.00;;;;4996448;28;20287;-68
2022/01/21 02:04:39;;;;;;;0.50;0.50;;;4.40;99.90;4.80;103297.00;;;;5015224;28;20641;-68
2022/01/21 02:07:16;;;;;;;0.50;0.50;;;4.40;99.90;4.90;103313.00;;;;5031751;28;20232;-68
2022/01/21 02:09:48;;;;;;;0.47;0.47;;;4.60;99.90;5.10;103311.00;;;;5014030;28;20695;-67
2022/01/21 02:12:21;;;;;;;0.40;0.40;;;4.70;99.90;4.90;103297.00;;;;5031515;28;20201;-67
2022/01/21 02:14:55;;;;;;;0.40;0.40;;;4.70;99.90;5.20;103303.00;;;;5030725;28;20601;-67
2022/01/21 02:22:55;;;;;;;0.40;0.40;;;4.90;99.90;5.30;103297.00;;;;5016178;28;20212;-68
2022/01/21 02:25:27;;;;;;;0.40;0.40;;;4.90;99.90;5.30;103246.00;;;;5032233;28;20185;-68
2022/01/21 02:28:00;;;;;;;0.40;0.40;;;5.00;99.90;5.10;103292.00;;;;5014475;28;20186;-68
2022/01/21 02:30:34;;;;;;;0.40;0.40;;;4.90;99.90;5.50;103306.00;;;;5014716;28;20188;-68
2022/01/21 02:33:05;;;;;;;0.73;0.73;;;5.00;99.90;5.50;103306.00;;;;5011052;28;20219;-68
2022/01/21 02:35:39;;;;;;;0.70;0.70;;;5.10;99.90;5.50;103312.00;;;;5011916;28;20643;-68
2022/01/21 02:38:14;;;;;;;0.40;0.40;;;5.20;99.90;5.40;103304.00;;;;5011608;28;20203;-68
2022/01/21 02:40:48;;;;;;;0.40;0.40;;;5.20;99.90;5.50;103295.00;;;;5011039;28;20554;-68
2022/01/21 02:43:21;;;;;;;0.40;0.40;;;5.30;99.90;5.10;103284.00;;;;5013757;28;20188;-68
2022/01/21 02:45:49;;;;;;;0.40;0.40;;;5.00;99.90;5.30;103306.00;;;;5009416;28;20206;-68
2022/01/21 02:48:23;;;;;;;0.30;0.30;;;5.10;99.90;5.30;103303.00;;;;5011266;28;20229;-68
2022/01/21 02:50:55;;;;;;;1.67;1.57;;;5.00;99.90;5.30;103292.00;;;;5013261;28;20271;-68
2022/01/21 02:53:38;;;;;;;0.40;0.40;;;5.00;99.90;5.10;103306.00;;;;5011298;28;20259;-68
2022/01/21 02:56:05;;;;;;;0.40;0.40;;;4.90;99.90;5.30;103316.00;;;;5012372;28;20222;-68
2022/01/21 02:58:37;;;;;;;0.40;0.40;;;5.00;99.90;5.30;103282.00;;;;5012142;28;20639;-68
2022/01/21 03:01:09;;;;;;;0.40;0.40;;;5.00;99.90;5.20;103312.00;;;;5011538;28;20230;-69
2022/01/21 03:03:43;;;;;;;0.40;0.40;;;5.00;99.90;5.00;103307.00;;;;5012947;28;20191;-68
2022/01/21 03:06:18;;;;;;;0.77;0.77;;;4.90;99.90;4.90;103312.00;;;;5011968;28;20187;-68
2022/01/21 03:08:51;;;;;;;0.30;0.30;;;4.90;99.90;5.30;103324.00;;;;5011063;28;20664;-68
2022/01/21 03:11:27;;;;;;;0.40;0.40;;;5.00;99.90;5.50;103330.00;;;;5011729;28;20216;-68
2022/01/21 03:13:58;;;;;;;0.40;0.40;;;5.10;99.90;5.20;103324.00;;;;5011201;28;20218;-68
2022/01/21 03:16:30;;;;;;;0.40;0.40;;;5.10;99.90;5.50;103330.00;;;;5010062;28;20184;-67
2022/01/21 03:18:59;;;;;;;0.40;0.40;;;5.10;99.90;5.10;103315.00;;;;5014047;28;20236;-68
2022/01/21 03:21:30;;;;;;;3.93;1.63;;;5.00;99.90;5.20;103315.00;;;;5014140;28;20293;-68
2022/01/21 03:24:01;;;;;;;0.50;0.50;;;5.00;99.90;4.60;103297.00;;;;5016775;28;20539;-68
2022/01/21 03:26:33;;;;;;;0.40;0.40;;;4.70;99.90;4.30;103293.00;;;;5015296;28;20194;-68
2022/01/21 03:29:06;;;;;;;0.40;0.40;;;4.40;99.90;4.70;103320.00;;;;5015864;28;20781;-69
2022/01/21 03:31:33;;;;;;;0.30;0.30;;;4.60;99.90;4.90;103326.00;;;;5015517;28;20659;-68
2022/01/21 03:34:04;;;;;;;0.30;0.30;;;4.70;99.90;5.00;103324.00;;;;5036197;28;20195;-67
2022/01/21 03:36:32;;;;;;;0.30;0.30;;;4.80;99.90;4.70;103320.00;;;;5017457;28;20193;-67
2022/01/21 03:39:04;;;;;;;0.30;0.30;;;4.70;99.90;4.00;103305.00;;;;5017781;28;20191;-67
2022/01/21 03:41:35;;;;;;;0.30;0.30;;;4.40;99.90;3.60;103280.00;;;;5019616;28;20197;-67
2022/01/21 03:44:03;;;;;;;0.50;0.50;;;4.00;99.90;4.20;103315.00;;;;5033638;28;20191;-66
2022/01/21 03:46:35;;;;;;;0.30;0.30;;;4.10;99.90;4.40;103312.00;;;;5034408;28;20187;-67
2022/01/21 03:49:12;;;;;;;0.30;0.30;;;4.30;99.90;4.70;103275.00;;;;5034887;28;20281;-67
2022/01/21 03:51:43;;;;;;;0.37;0.37;;;4.50;99.90;4.50;103324.00;;;;5035062;28;20325;-67
2022/01/21 03:54:15;;;;;;;0.30;0.30;;;4.50;99.90;4.90;103328.00;;;;5015932;28;20573;-67
2022/01/21 03:56:45;;;;;;;0.30;0.30;;;4.60;99.90;4.60;103326.00;;;;5033916;28;20622;-68
2022/01/21 03:59:16;;;;;;;0.40;0.40;;;4.50;99.90;4.80;103315.00;;;;5015706;28;20190;-68
2022/01/21 04:01:47;;;;;;;0.33;0.33;;;4.50;99.90;4.50;103318.00;;;;5017336;28;20186;-68
2022/01/21 04:04:15;;;;;;;0.40;0.40;;;4.30;99.90;4.80;103330.00;;;;5035333;28;20666;-67
2022/01/21 04:06:41;;;;;;;0.40;0.40;;;4.30;99.90;4.70;103298.00;;;;5016504;28;20203;-68
2022/01/21 04:09:07;;;;;;;0.30;0.30;;;4.40;99.90;4.90;103311.00;;;;5015612;28;20193;-68
2022/01/21 04:11:33;;;;;;;0.40;0.40;;;4.50;99.90;5.00;103298.00;;;;5015682;28;20214;-68
2022/01/21 04:13:59;;;;;;;0.30;0.30;;;4.60;99.90;4.00;103308.00;;;;5015114;28;20610;-67
2022/01/21 04:16:27;;;;;;;0.33;0.33;;;4.40;99.90;4.20;103319.00;;;;4999329;28;20194;-68
2022/01/21 04:19:01;;;;;;;0.30;0.30;;;4.30;99.90;3.80;103319.00;;;;5000055;28;20202;-67
2022/01/21 04:21:33;;;;;;;8.67;1.03;;;4.10;99.90;4.10;103331.00;;;;5016922;28;20200;-67
2022/01/21 04:24:04;;;;;;;1.23;1.13;;;4.00;99.90;4.50;103330.00;;;;5017159;28;20241;-68
2022/01/21 04:26:30;;;;;;;0.30;0.30;;;4.30;99.90;4.60;103318.00;;;;5017202;28;20190;-68
2022/01/21 04:29:02;;;;;;;0.33;0.33;;;4.40;99.90;4.80;103309.00;;;;5015588;28;20279;-68
2022/01/21 04:31:30;;;;;;;0.30;0.30;;;4.60;99.90;5.00;103322.00;;;;5014774;28;20215;-68
2022/01/21 04:34:02;;;;;;;0.40;0.40;;;4.60;99.90;4.80;103311.00;;;;5033693;28;20187;-68
2022/01/21 04:36:34;;;;;;;0.40;0.40;;;4.60;99.90;4.70;103316.00;;;;5015923;28;20654;-68
2022/01/21 04:39:04;;;;;;;0.40;0.40;;;4.50;99.90;4.80;103309.00;;;;5015272;28;20217;-68
2022/01/21 04:49:48;;;;;;;0.40;0.40;;;4.60;99.90;5.10;103329.00;;;;5034332;28;20201;-68
2022/01/21 04:52:21;;;;;;;0.40;0.40;;;4.60;99.90;4.90;103329.00;;;;5016093;28;20707;-68
2022/01/21 04:54:47;;;;;;;0.40;0.40;;;4.60;99.90;4.90;103309.00;;;;5033645;28;20653;-68
2022/01/21 04:57:19;;;;;;;0.40;0.40;;;4.60;99.90;4.90;103297.00;;;;5033655;28;20230;-68
2022/01/21 04:59:53;;;;;;;0.40;0.40;;;4.70;99.90;4.60;103332.00;;;;5014154;28;20187;-67
2022/01/21 05:02:26;;;;;;;0.40;0.40;;;4.50;99.90;4.50;103328.00;;;;5014829;28;20193;-68
2022/01/21 05:05:02;;;;;;;0.40;0.40;;;4.40;99.90;4.70;103304.00;;;;5032823;28;20201;-67
2022/01/21 05:07:39;;;;;;;0.40;0.40;;;4.30;99.90;5.30;103324.00;;;;5016712;28;20197;-68
2022/01/21 05:10:13;;;;;;;0.40;0.40;;;4.70;99.90;5.30;103337.00;;;;5016354;28;20662;-67
2022/01/21 05:12:44;;;;;;;0.30;0.30;;;4.90;99.90;4.80;103326.00;;;;5016339;28;20246;-67
2022/01/21 05:15:57;;;;;;;0.43;0.43;;;4.90;99.90;4.80;103332.00;;;;4998066;28;20182;-67
2022/01/21 05:18:04;;;;;;;0.43;0.43;;;4.60;99.90;4.80;103336.00;;;;5016233;28;20206;-67
2022/01/21 05:20:35;;;;;;;0.40;0.40;;;4.50;99.90;4.60;103329.00;;;;5033210;28;20186;-68
2022/01/21 05:23:06;;;;;;;0.50;0.50;;;4.50;99.90;4.80;103335.00;;;;4999781;28;20543;-67
2022/01/21 05:25:35;;;;;;;0.40;0.40;;;4.50;99.90;4.70;103320.00;;;;5033834;28;20194;-66
2022/01/21 05:28:04;;;;;;;0.40;0.40;;;4.50;99.90;5.10;103329.00;;;;4998965;28;20195;-67
2022/01/21 05:30:35;;;;;;;0.40;0.40;;;4.60;99.90;4.70;103328.00;;;;5015199;28;20248;-67
2022/01/21 05:33:06;;;;;;;0.50;0.50;;;4.60;99.90;5.00;103326.00;;;;4999318;28;20585;-66
2022/01/21 05:35:37;;;;;;;0.40;0.40;;;4.70;99.90;5.20;103326.00;;;;5033707;28;20191;-67
2022/01/21 05:38:09;;;;;;;0.40;0.40;;;4.70;99.90;4.80;103282.00;;;;5016383;28;20187;-67
2022/01/21 05:40:42;;;;;;;0.50;0.50;;;4.70;99.90;5.10;103322.00;;;;4998789;28;20256;-67
2022/01/21 05:43:17;;;;;;;0.50;0.50;;;4.70;99.90;4.80;103334.00;;;;5015978;28;20654;-67
2022/01/21 05:48:37;;;;;;;0.50;0.50;;;4.60;99.90;4.90;103319.00;;;;5017601;28;20206;-67
2022/01/21 05:51:03;;;;;;;0.50;0.50;;;4.50;99.90;4.70;103322.00;;;;5033269;28;20528;-67
2022/01/21 05:53:34;;;;;;;0.57;0.57;;;4.50;99.90;4.80;103325.00;;;;5016519;28;20312;-67
2022/01/21 05:56:05;;;;;;;0.60;0.60;;;4.40;99.90;4.60;103320.00;;;;5015399;28;20281;-67
2022/01/21 05:58:37;;;;;;;0.50;0.50;;;4.30;99.90;4.70;103328.00;;;;5000046;28;20902;-68
2022/01/21 06:01:08;;;;;;;0.50;0.50;;;4.30;99.90;4.20;103312.00;;;;5016418;28;20182;-67
2022/01/21 06:03:39;;;;;;;0.50;0.50;;;4.20;99.90;4.40;103314.00;;;;5014237;28;20195;-68
2022/01/21 06:06:10;;;;;;;0.50;0.50;;;4.10;99.90;4.00;103322.00;;;;4998323;28;20217;-68
2022/01/21 06:08:44;;;;;;;0.50;0.50;;;4.10;99.90;4.30;103324.00;;;;5016126;28;20190;-69
2022/01/21 06:11:10;;;;;;;0.53;0.53;;;4.00;99.90;4.30;103325.00;;;;5015305;28;20197;-68
2022/01/21 06:13:41;;;;;;;0.50;0.50;;;4.00;99.90;4.50;103316.00;;;;5015691;28;20193;-68
2022/01/21 06:16:07;;;;;;;0.50;0.50;;;4.10;99.90;4.50;103264.00;;;;5015920;28;20218;-67
2022/01/21 06:18:38;;;;;;;0.50;0.50;;;4.20;99.90;4.60;103316.00;;;;5033406;28;20218;-68
2022/01/21 06:21:12;;;;;;;0.50;0.50;;;4.20;99.90;4.50;103327.00;;;;5015409;28;20187;-68
2022/01/21 06:23:43;;;;;;;0.50;0.50;;;4.10;99.90;4.20;103324.00;;;;5016019;28;20218;-66
2022/01/21 06:26:14;;;;;;;0.50;0.50;;;4.10;99.90;4.60;103333.00;;;;5015948;28;20273;-67
2022/01/21 06:28:40;;;;;;;0.50;0.50;;;4.10;99.90;4.80;103341.00;;;;5015718;28;20187;-68
2022/01/21 06:31:15;;;;;;;0.50;0.50;;;4.30;99.90;4.50;103278.00;;;;5031191;28;20214;-68
2022/01/21 06:33:46;;;;;;;0.40;0.40;;;4.40;99.90;4.40;103288.00;;;;5032524;28;20190;-68
2022/01/21 06:36:12;;;;;;;0.50;0.50;;;4.20;99.90;4.60;103319.00;;;;5013064;28;20228;-67
2022/01/21 06:38:44;;;;;;;1.03;0.77;;;4.30;99.90;4.30;103319.00;;;;5012103;28;20285;-67
2022/01/21 06:41:09;;;;;;;0.50;0.50;;;4.20;99.90;4.10;103317.00;;;;5012532;28;20276;-67
2022/01/21 06:43:41;;;;;;;0.60;0.60;;;4.10;99.90;4.30;103323.00;;;;5011680;28;20670;-67
2022/01/21 06:46:13;;;;;;;0.40;0.40;;;4.10;99.90;4.30;103283.00;;;;5012707;28;20269;-67
2022/01/21 06:48:39;;;;;;;0.40;0.40;;;4.10;99.90;4.10;103332.00;;;;5013183;28;20202;-68
2022/01/21 06:51:11;;;;;;;0.40;0.40;;;4.10;99.90;4.20;103336.00;;;;5012691;28;20201;-68
2022/01/21 06:53:42;;;;;;;0.40;0.40;;;4.10;99.90;4.30;103349.00;;;;5032647;28;20183;-69
2022/01/21 06:56:10;;;;;;;0.50;0.50;;;4.10;99.90;4.20;103295.00;;;;5034932;28;20182;-69
2022/01/21 06:58:39;;;;;;;0.90;0.90;;;4.00;99.90;4.20;103341.00;;;;5016682;28;20197;-69
2022/01/21 07:01:10;;;;;;;0.50;0.50;;;4.00;99.90;4.30;103354.00;;;;5016604;28;21487;-69
2022/01/21 07:03:45;;;;;;;0.50;0.50;;;4.10;99.90;4.70;103328.00;;;;5016833;28;20198;-69
2022/01/21 07:06:11;;;;;;;0.50;0.50;;;4.30;99.90;4.00;103351.00;;;;5000570;28;20194;-69
2022/01/21 07:08:42;;;;;;;0.50;0.50;;;4.10;99.90;4.30;103362.00;;;;5034871;28;20182;-69
2022/01/21 07:15:08;;;;;;;0.47;0.47;;;3.90;99.90;4.20;103370.00;;;;5034593;28;20317;-69
2022/01/21 07:17:42;;;;;;;0.50;0.50;;;3.90;99.90;4.50;103357.00;;;;5016644;28;20201;-69
2022/01/21 07:20:09;;;;;;;0.50;0.50;;;4.10;99.90;4.30;103370.00;;;;5015994;28;20288;-69
2022/01/21 07:22:43;;;;;;;0.50;0.50;;;4.10;99.90;4.50;103378.00;;;;5016402;28;20194;-69
2022/01/21 07:25:18;;;;;;;0.60;0.60;;;4.10;99.90;4.50;103380.00;;;;5017046;28;20953;-69
2022/01/21 07:27:50;;;;;;;0.50;0.50;;;4.10;99.90;4.30;103384.00;;;;5016015;28;20630;-69
2022/01/21 07:30:16;;;;;;;0.50;0.50;;;4.00;99.90;4.20;103374.00;;;;5014171;28;20197;-69
2022/01/21 07:32:47;;;;;;;0.50;0.50;;;4.00;99.90;3.90;103368.00;;;;5034016;28;20275;-69
2022/01/21 07:35:14;;;;;;;0.50;0.50;;;3.80;99.90;4.10;103374.00;;;;5034375;28;20203;-69
2022/01/21 07:37:46;;;;;;;0.43;0.43;;;3.90;99.90;4.40;103384.00;;;;4999334;28;20190;-69
2022/01/21 07:41:19;;;;;;;0.50;0.50;;;4.20;99.90;4.70;103376.00;;;;5016449;28;20183;-69
2022/01/21 07:43:45;;;;;;;0.50;0.50;;;4.20;99.90;4.60;103337.00;;;;5015666;28;20198;-69
2022/01/21 07:46:19;;;;;;;0.50;0.50;;;4.30;99.90;4.70;103377.00;;;;5015882;28;20217;-69
2022/01/21 07:49:27;;;;;;;0.50;0.50;;;4.30;99.90;4.90;103381.00;;;;5016762;28;20274;-67
2022/01/21 07:51:53;;;;;;;0.60;0.60;;;4.40;99.90;4.70;103388.00;;;;5015715;28;20673;-68
2022/01/21 07:54:19;;;;;;;0.50;0.50;;;4.60;99.90;5.00;103334.00;;;;5033736;28;20187;-68
2022/01/21 07:56:45;;;;;;;0.50;0.50;;;4.60;99.90;4.80;103374.00;;;;5034380;28;20186;-68
2022/01/21 07:59:17;;;;;;;0.50;0.50;;;4.60;99.90;5.00;103376.00;;;;5033836;28;20190;-68
2022/01/21 08:01:46;;;;;;;0.50;0.50;;;4.60;99.90;4.90;103389.00;;;;5015577;28;20190;-68
2022/01/21 08:04:17;;;;;;;0.60;0.60;;;4.60;99.90;4.80;103388.00;;;;5014674;28;20191;-69
2022/01/21 08:06:43;;;;;;;0.80;0.80;;;4.50;99.90;5.10;103389.00;;;;5015382;28;20191;-69
2022/01/21 08:09:23;;;;;;;0.50;0.50;;;4.60;99.90;5.00;103358.00;;;;5015439;28;20240;-69
2022/01/21 08:11:53;;;;;;;0.50;0.50;;;4.60;99.90;4.90;103354.00;;;;5016959;28;20237;-69
2022/01/21 08:14:20;;;;;;;1.13;1.13;;;4.60;99.90;4.90;103393.00;;;;5015427;28;20183;-69
2022/01/21 08:16:46;;;;;;;0.60;0.60;;;4.70;99.90;4.90;103409.00;;;;5015290;28;20210;-69
2022/01/21 08:19:17;;;;;;;0.70;0.70;;;4.60;99.90;4.80;103393.00;;;;5015235;28;20182;-68
2022/01/21 08:21:43;;;;;;;0.50;0.50;;;4.60;99.90;5.00;103372.00;;;;4999293;28;20705;-68
2022/01/21 08:24:13;;;;;;;2.30;2.20;;;4.60;99.90;5.10;103404.00;;;;5014879;28;20277;-68
2022/01/21 08:26:44;;;;;;;0.40;0.40;;;4.70;99.90;5.10;103374.00;;;;4999425;28;20321;-69
2022/01/21 08:29:16;;;;;;;0.80;0.80;;;4.80;99.90;5.40;103402.00;;;;4998364;28;20232;-68
2022/01/21 08:31:46;;;;;;;0.50;0.50;;;5.00;99.90;4.90;103413.00;;;;5014450;28;20618;-69
2022/01/21 08:34:18;;;;;;;0.40;0.40;;;4.90;99.90;4.90;103415.00;;;;5032924;28;20278;-69
2022/01/21 08:36:44;;;;;;;1.77;1.03;;;4.80;99.90;4.70;103413.00;;;;5015450;28;20186;-68
2022/01/21 08:39:18;;;;;;;1.17;1.17;;;4.80;99.90;4.90;103403.00;;;;5014870;28;20195;-68
2022/01/21 08:41:50;;;;;;;1.93;1.83;;;4.80;99.90;4.80;103391.00;;;;5015397;28;20231;-68
2022/01/21 08:44:21;;;;;;;2.00;1.80;;;4.70;99.90;4.70;103397.00;;;;5014217;28;20182;-68
2022/01/21 08:46:52;;;;;;;1.33;0.70;;;4.70;99.90;4.50;103356.00;;;;4998598;28;20183;-68
2022/01/21 08:49:23;;;;;;;0.40;0.40;;;4.60;99.90;4.50;103394.00;;;;5032475;28;20186;-68
2022/01/21 08:51:53;;;;;;;2.90;0.90;;;4.60;99.90;4.90;103384.00;;;;5032630;28;20236;-69
2022/01/21 08:54:21;;;;;;;0.40;0.40;;;4.70;99.90;4.90;103397.00;;;;5015178;28;20245;-68
2022/01/21 08:56:49;;;;;;;0.40;0.40;;;4.90;99.90;4.90;103389.00;;;;5032864;28;20182;-69
2022/01/21 08:59:19;;;;;;;0.40;0.40;;;4.80;99.90;5.20;103390.00;;;;5014116;28;20193;-68
2022/01/21 09:01:52;;;;;;;2.20;2.00;;;5.00;99.90;5.10;103384.00;;;;5014800;28;20186;-68
2022/01/21 09:04:23;;;;;;;0.30;0.30;;;5.00;99.90;4.70;103344.00;;;;5014362;28;20206;-69
2022/01/21 09:06:54;;;;;;;0.30;0.30;;;5.00;99.90;5.10;103392.00;;;;5032199;28;20191;-69
2022/01/21 09:09:29;;;;;;;0.40;0.40;;;5.00;99.90;4.80;103348.00;;;;5032398;28;20187;-69
2022/01/21 09:11:59;;;;;;;0.50;0.50;;;5.10;99.90;5.00;103404.00;;;;5013978;28;20641;-69
2022/01/21 09:14:29;;;;;;;0.80;0.70;;;5.00;99.90;4.70;103397.00;;;;5015307;28;20217;-69
2022/01/21 09:16:58;;;;;;;1.10;1.07;;;5.00;99.90;4.80;103404.00;;;;5014679;28;20187;-69
2022/01/21 09:19:25;;;;;;;0.30;0.30;;;5.00;99.90;4.70;103408.00;;;;5014805;28;20190;-69
2022/01/21 09:21:55;;;;;;;0.73;0.73;;;5.00;99.90;4.90;103420.00;;;;5015223;28;20286;-69
2022/01/21 09:24:27;;;;;;;0.30;0.30;;;5.00;99.90;4.80;103411.00;;;;5014514;28;20285;-69
2022/01/21 09:26:52;;;;;;;14.00;1.23;;;5.10;99.90;5.50;103422.00;;;;5032825;28;20182;-70
2022/01/21 09:29:19;;;;;;;0.30;0.30;;;5.30;99.90;4.90;103412.00;;;;5015277;28;20197;-68
2022/01/21 09:31:45;;;;;;;0.57;0.57;;;5.30;99.90;4.90;103363.00;;;;5014895;28;20221;-69
2022/01/21 09:34:11;;;;;;;0.30;0.30;;;5.40;99.90;5.00;103383.00;;;;5021759;28;20274;-68
2022/01/21 09:36:42;;;;;;;0.30;0.30;;;5.40;99.90;5.90;103424.00;;;;5023018;28;20239;-69
2022/01/21 09:39:17;;;;;;;4.30;1.70;;;5.70;99.90;5.90;103417.00;;;;5023400;28;20640;-69
2022/01/21 09:41:49;;;;;;;0.63;0.63;;;6.00;99.90;6.20;103411.00;;;;5022265;28;20189;-69
2022/01/21 09:44:21;;;;;;;0.30;0.30;;;6.10;99.90;6.60;103425.00;;;;5011875;28;20610;-69
2022/01/21 09:46:53;;;;;;;2.07;1.27;;;6.40;99.90;6.10;103403.00;;;;5032585;28;20606;-69
2022/01/21 09:49:28;;;;;;;0.20;0.20;;;6.50;99.90;6.40;103420.00;;;;5022057;28;20661;-69
2022/01/21 09:52:06;;;;;;;0.50;0.50;;;6.40;99.90;7.60;103381.00;;;;5022869;28;20210;-69
2022/01/21 09:54:37;;;;;;;0.43;0.43;;;7.20;99.90;6.60;103430.00;;;;5022950;28;20225;-63
2022/01/21 09:57:07;;;;;;;0.30;0.30;;;7.10;99.90;6.20;103425.00;;;;5006416;28;20213;-62
2022/01/21 09:59:39;;;;;;;1.13;1.13;;;6.70;99.90;6.00;103378.00;;;;5032033;28;20187;-62
2022/01/21 10:02:08;;;;;;;0.20;0.20;;;6.50;99.90;6.10;103374.00;;;;5022811;28;20661;-62
2022/01/21 10:04:42;;;;;;;0.40;0.40;;;6.30;99.90;7.20;103432.00;;;;5022651;28;20540;-62
2022/01/21 10:07:15;;;;;;;0.90;0.90;;;6.80;99.90;6.10;103382.00;;;;5022536;28;20183;-62
2022/01/21 10:09:43;;;;;;;0.50;0.50;;;6.60;99.90;6.70;103433.00;;;;5031563;28;20193;-63
2022/01/21 10:12:10;;;;;;;1.73;0.53;;;6.70;99.90;6.30;103430.00;;;;5032773;28;20218;-62
2022/01/21 10:14:38;;;;;;;4.03;2.00;;;6.60;99.90;5.90;103442.00;;;;5022521;28;20637;-63
2022/01/21 10:17:08;;;;;;;0.53;0.53;;;6.50;99.90;6.00;103435.00;;;;5020954;28;20202;-63
2022/01/21 10:19:45;;;;;;;0.30;0.30;;;6.40;99.90;6.30;103395.00;;;;5032257;28;20199;-64
2022/01/21 10:33:18;;;;;;;3.77;1.33;;;6.50;99.90;6.10;103417.00;;;;5097442;27;20560;-62
2022/01/21 10:35:51;;;;;;;0.47;0.47;;;6.50;99.90;6.70;103447.00;;;;5080024;28;20202;-62
2022/01/21 10:38:28;;;;;;;2.93;1.60;;;6.90;99.90;7.10;103451.00;;;;5078947;28;20185;-62
2022/01/21 10:44:15;;;;;;;1.77;1.30;;;7.10;99.90;7.70;103417.00;;;;5084126;28;20547;-62
2022/01/21 10:47:02;;;;;;;0.20;0.20;;;7.40;99.90;7.60;103454.00;;;;5094266;28;20185;-62
2022/01/21 10:49:31;;;;;;;1.23;1.03;;;7.60;99.90;7.70;103409.00;;;;5072865;28;20193;-62
2022/01/21 10:52:00;;;;;;;1.07;1.07;;;7.60;99.90;6.80;103444.00;;;;5069222;28;20235;-63
2022/01/21 10:54:32;;;;;;;0.93;0.93;;;7.30;99.90;7.30;103396.00;;;;5074500;28;20220;-62
2022/01/21 10:57:21;;;;;;;0.30;0.30;;;7.30;99.90;7.90;103449.00;;;;5076498;28;20181;-63
2022/01/21 11:00:09;;;;;;;0.20;0.20;;;7.60;99.90;7.80;103402.00;;;;5077319;28;20269;-62
2022/01/21 11:03:30;;;;;;;;;;;;;;;;;;;;;
2022/01/21 11:06:56;;;;;;;0.40;0.40;;;7.40;99.90;7.20;103442.00;;;;5076697;28;20194;-64
2022/01/21 11:09:25;;;;;;;5.20;2.93;;;7.30;99.90;7.00;103446.00;;;;5038366;28;20286;-65
2022/01/21 11:12:15;;;;;;;2.53;1.67;;;7.30;99.90;7.40;103446.00;;;;5061562;28;20321;-65
2022/01/21 11:15:05;;;;;;;0.40;0.40;;;7.40;99.90;7.50;103417.00;;;;5077262;28;20235;-60
2022/01/21 11:17:31;;;;;;;1.47;1.37;;;7.50;99.90;7.90;103408.00;;;;5069129;28;20201;-60
2022/01/21 11:20:15;;;;;;;1.90;1.73;;;7.70;99.90;7.50;103447.00;;;;5080095;28;20192;-60
2022/01/21 11:22:56;;;;;;;0.30;0.30;;;7.70;99.90;8.00;103441.00;;;;5068045;28;20174;-66
2022/01/21 11:25:46;;;;;;;0.30;0.30;;;7.70;99.90;8.20;103439.00;;;;5067990;28;20516;-63
2022/01/21 11:28:37;;;;;;;0.30;0.30;;;7.90;99.90;7.90;103428.00;;;;5068600;28;20520;-64
2022/01/21 11:31:05;;;;;;;0.40;0.40;;;7.80;99.90;8.10;103436.00;;;;5067802;28;20613;-64
2022/01/21 11:33:31;;;;;;;0.40;0.40;;;7.90;99.90;7.50;103382.00;;;;5068224;28;20184;-61
2022/01/21 11:35:57;;;;;;;0.30;0.30;;;7.70;99.90;7.80;103429.00;;;;5067501;28;20212;-61
2022/01/21 11:38:28;;;;;;;0.30;0.30;;;7.70;99.90;7.80;103387.00;;;;5068112;28;20260;-64
2022/01/21 11:40:54;;;;;;;0.83;0.83;;;7.70;99.90;7.90;103421.00;;;;5068390;28;20679;-61
2022/01/21 11:43:21;;;;;;;0.30;0.30;;;7.80;99.90;8.20;103417.00;;;;5062145;28;20174;-63
2022/01/21 11:51:33;;;;;;;2.13;1.73;;;8.40;99.90;8.40;103416.00;;;;5052198;28;20205;-64
2022/01/21 11:54:16;;;;;;;0.40;0.40;;;8.30;99.90;8.80;103418.00;;;;5052455;28;20178;-64
2022/01/21 11:57:01;;;;;;;0.67;0.67;;;8.40;99.90;9.30;103416.00;;;;5070246;28;20297;-61
2022/01/21 12:02:15;;;;;;;0.30;0.30;;;9.10;99.90;9.60;103392.00;;;;5055681;28;20194;-62
2022/01/21 12:04:56;;;;;;;0.40;0.40;;;9.20;99.90;9.30;103392.00;;;;5054426;28;20229;-62
2022/01/21 12:07:48;;;;;;;0.40;0.40;;;9.10;99.90;9.00;103382.00;;;;5055505;28;20214;-61
2022/01/21 12:10:31;;;;;;;0.40;0.40;;;8.90;99.90;8.90;103372.00;;;;5055444;28;20190;-62
2022/01/21 12:13:08;;;;;;;0.30;0.30;;;8.70;99.90;8.70;103376.00;;;;5055206;28;20190;-61
2022/01/21 12:15:39;;;;;;;0.43;0.43;;;8.70;99.90;8.40;103379.00;;;;5054304;28;20190;-62
2022/01/21 12:21:29;;;;;;;3.80;3.50;;;8.40;99.90;8.50;103394.00;;;;5055443;28;20557;-62
2022/01/21 12:24:01;;;;;;;0.40;0.40;;;8.40;99.90;8.90;103381.00;;;;5052097;28;20570;-62
2022/01/21 12:26:29;;;;;;;0.40;0.40;;;8.50;99.90;8.30;103386.00;;;;5055335;28;20194;-62
2022/01/21 12:28:57;;;;;;;0.30;0.30;;;8.30;99.90;8.10;103352.00;;;;5054976;28;20634;-62
2022/01/21 12:31:46;;;;;;;0.40;0.40;;;8.10;99.90;8.50;103395.00;;;;5054969;28;20210;-62
2022/01/21 12:34:16;;;;;;;0.40;0.40;;;8.10;99.90;8.40;103398.00;;;;5055005;28;20178;-62
2022/01/21 12:37:07;;;;;;;0.50;0.50;;;8.10;99.90;8.30;103368.00;;;;5054926;28;20181;-62
2022/01/21 12:39:48;;;;;;;0.53;0.53;;;8.10;99.90;8.10;103358.00;;;;5037272;28;20241;-62